Time;durP1;ratioP1;P1;durP2;ratioP2;P2;SDS_P1;SDS_P2;PMS_P1;PMS_P2;Temp;Humidity;BMP_temperature;BMP_pressure;BME280_temperature;BME280_humidity;BME280_pressure;Samples;Min_cycle;Max_cycle;Signal;HPM_P1;HPM_P2
2021/05/21 00:02:13;;;;;;;3.10;2.60;;;13.40;1.00;;;;;;5105706;28;20303;-55
2021/05/21 00:04:38;;;;;;;2.50;2.30;;;13.40;1.00;;;;;;5111161;28;20231;-54
2021/05/21 00:07:04;;;;;;;2.50;2.30;;;13.30;1.00;;;;;;5102407;28;20556;-53
2021/05/21 00:09:29;;;;;;;2.43;2.23;;;13.40;1.00;;;;;;5108273;28;20635;-56
2021/05/21 00:11:55;;;;;;;4.40;2.60;;;13.40;1.00;;;;;;5112348;28;20704;-54
2021/05/21 00:14:21;;;;;;;3.27;2.80;;;13.30;1.00;;;;;;5108239;28;20280;-55
2021/05/21 00:16:46;;;;;;;3.80;2.40;;;13.40;1.00;;;;;;5112369;28;20194;-53
2021/05/21 00:19:12;;;;;;;2.27;2.17;;;13.40;1.00;;;;;;5092210;28;20261;-53
2021/05/21 00:21:37;;;;;;;2.70;2.50;;;13.40;1.00;;;;;;5107254;28;20652;-53
2021/05/21 00:24:03;;;;;;;2.53;2.33;;;13.40;1.00;;;;;;5103006;28;20570;-55
2021/05/21 00:26:29;;;;;;;2.63;2.43;;;13.40;1.00;;;;;;5100529;28;20748;-52
2021/05/21 00:28:55;;;;;;;3.73;2.30;;;13.50;1.00;;;;;;5099563;28;20443;-54
2021/05/21 00:31:21;;;;;;;3.00;2.80;;;13.40;1.00;;;;;;5106069;28;20600;-53
2021/05/21 00:33:46;;;;;;;3.00;2.70;;;13.40;1.00;;;;;;5104269;28;20290;-54
2021/05/21 00:36:12;;;;;;;4.40;2.80;;;13.40;1.00;;;;;;5105704;28;20704;-54
2021/05/21 00:38:37;;;;;;;2.60;2.27;;;13.40;1.00;;;;;;5110791;28;20209;-55
2021/05/21 00:41:03;;;;;;;3.23;2.93;;;13.30;1.00;;;;;;5106810;28;20203;-51
2021/05/21 00:43:29;;;;;;;5.53;2.77;;;13.30;1.00;;;;;;5104832;28;20190;-53
2021/05/21 00:45:54;;;;;;;3.20;3.00;;;13.40;1.00;;;;;;5099809;27;20242;-53
2021/05/21 00:48:21;;;;;;;3.03;2.70;;;13.30;1.00;;;;;;5101122;28;20443;-53
2021/05/21 00:50:49;;;;;;;4.10;2.80;;;13.30;1.00;;;;;;5100229;28;20687;-53
2021/05/21 00:53:17;;;;;;;3.00;2.80;;;13.30;1.00;;;;;;5111048;28;20446;-53
2021/05/21 00:55:43;;;;;;;2.90;2.70;;;13.20;1.00;;;;;;5113439;28;20489;-55
2021/05/21 00:58:09;;;;;;;3.20;3.00;;;13.20;1.00;;;;;;5103885;28;20510;-55
2021/05/21 01:00:34;;;;;;;3.30;3.00;;;13.20;1.00;;;;;;5101899;28;20439;-53
2021/05/21 01:03:00;;;;;;;3.10;2.87;;;13.20;1.00;;;;;;5112293;28;20960;-54
2021/05/21 01:05:25;;;;;;;3.40;3.10;;;13.10;1.00;;;;;;5109584;28;20238;-51
2021/05/21 01:07:51;;;;;;;3.33;2.70;;;13.10;1.00;;;;;;5099870;28;20264;-51
2021/05/21 01:10:17;;;;;;;3.90;2.97;;;13.10;1.00;;;;;;5112194;28;20209;-54
2021/05/21 01:12:42;;;;;;;3.80;3.50;;;13.10;1.00;;;;;;5112467;28;20648;-56
2021/05/21 01:15:11;;;;;;;4.23;3.17;;;13.00;1.00;;;;;;5108324;28;20182;-52
2021/05/21 01:17:36;;;;;;;3.20;3.00;;;13.10;1.00;;;;;;5095659;28;20636;-52
2021/05/21 01:20:05;;;;;;;2.57;2.37;;;13.10;1.00;;;;;;5110425;28;20535;-52
2021/05/21 01:22:31;;;;;;;3.40;3.03;;;13.00;1.00;;;;;;5089454;28;20230;-53
2021/05/21 01:24:56;;;;;;;4.20;3.07;;;12.90;1.00;;;;;;5096316;28;20434;-53
2021/05/21 01:27:22;;;;;;;4.37;2.60;;;13.00;1.00;;;;;;5112324;28;20193;-54
2021/05/21 01:29:48;;;;;;;4.77;3.47;;;13.00;1.00;;;;;;5094759;28;20208;-54
2021/05/21 01:32:13;;;;;;;3.90;2.93;;;13.00;1.00;;;;;;5111574;28;20805;-55
2021/05/21 01:34:39;;;;;;;4.90;2.70;;;13.00;1.00;;;;;;5102468;28;20205;-52
2021/05/21 01:37:19;;;;;;;3.83;3.17;;;13.10;1.00;;;;;;5106312;28;20603;-54
2021/05/21 01:39:46;;;;;;;3.23;2.77;;;13.10;1.00;;;;;;5109875;28;20914;-53
2021/05/21 01:42:13;;;;;;;3.70;3.10;;;13.10;1.00;;;;;;5107891;28;20509;-53
2021/05/21 01:44:40;;;;;;;6.50;4.33;;;13.10;1.00;;;;;;5110218;28;20434;-55
2021/05/21 01:47:09;;;;;;;4.77;2.90;;;13.00;1.00;;;;;;5111614;28;20475;-53
2021/05/21 01:49:34;;;;;;;4.60;3.00;;;13.00;1.00;;;;;;5111535;28;20439;-52
2021/05/21 01:52:00;;;;;;;2.70;2.50;;;13.00;1.00;;;;;;5111859;28;20965;-54
2021/05/21 01:54:28;;;;;;;3.20;2.90;;;13.00;1.00;;;;;;5109763;28;20444;-55
2021/05/21 01:56:54;;;;;;;2.70;2.50;;;13.10;1.00;;;;;;5098937;28;20447;-52
2021/05/21 01:59:24;;;;;;;3.00;2.80;;;13.00;1.00;;;;;;5110354;28;20499;-52
2021/05/21 02:01:50;;;;;;;2.90;2.70;;;13.00;1.00;;;;;;5109785;28;20790;-54
2021/05/21 02:04:25;;;;;;;3.67;2.93;;;13.00;1.00;;;;;;5102651;28;20458;-54
2021/05/21 02:06:51;;;;;;;4.43;3.07;;;13.10;1.00;;;;;;5100333;28;20440;-52
2021/05/21 02:09:17;;;;;;;3.37;3.13;;;13.10;1.00;;;;;;5111095;28;20794;-53
2021/05/21 02:11:42;;;;;;;2.97;2.77;;;13.10;1.00;;;;;;5111278;28;20245;-54
2021/05/21 02:14:08;;;;;;;4.13;3.37;;;13.10;1.00;;;;;;5108840;28;20201;-53
2021/05/21 02:16:33;;;;;;;3.20;3.00;;;13.10;1.00;;;;;;5080891;28;20730;-52
2021/05/21 02:18:59;;;;;;;4.40;4.10;;;13.00;1.00;;;;;;5091225;28;20718;-55
2021/05/21 02:21:31;;;;;;;3.40;3.20;;;13.00;1.00;;;;;;5108768;28;20181;-54
2021/05/21 02:24:00;;;;;;;3.47;3.20;;;13.00;1.00;;;;;;5104608;28;20307;-54
2021/05/21 02:26:26;;;;;;;3.30;2.90;;;13.00;1.00;;;;;;5107861;28;20443;-52
2021/05/21 02:28:51;;;;;;;3.47;3.10;;;13.00;1.00;;;;;;5102388;28;20489;-53
2021/05/21 02:31:17;;;;;;;4.47;2.90;;;12.80;1.00;;;;;;5102061;28;20258;-53
2021/05/21 02:33:43;;;;;;;3.50;3.20;;;12.90;1.00;;;;;;5108728;28;20220;-54
2021/05/21 02:36:08;;;;;;;3.93;3.17;;;12.80;1.00;;;;;;5110617;28;20569;-52
2021/05/21 02:38:34;;;;;;;3.00;2.80;;;12.80;1.00;;;;;;5099855;28;20185;-54
2021/05/21 02:41:00;;;;;;;3.47;3.17;;;12.70;1.00;;;;;;5093824;28;20647;-53
2021/05/21 02:43:25;;;;;;;3.10;2.80;;;12.80;1.00;;;;;;5107321;28;20192;-55
2021/05/21 02:45:51;;;;;;;3.67;3.07;;;12.80;1.00;;;;;;5102891;28;20207;-55
2021/05/21 02:48:16;;;;;;;3.77;3.43;;;12.80;1.00;;;;;;5104866;28;20209;-52
2021/05/21 02:50:42;;;;;;;3.17;2.80;;;12.90;1.00;;;;;;5092105;28;20269;-54
2021/05/21 02:53:08;;;;;;;3.40;3.10;;;12.90;1.00;;;;;;5107915;28;20615;-55
2021/05/21 02:55:34;;;;;;;3.63;3.37;;;12.90;1.00;;;;;;5100367;28;20450;-54
2021/05/21 02:58:00;;;;;;;3.40;3.10;;;12.90;1.00;;;;;;5090515;28;20194;-52
2021/05/21 03:00:26;;;;;;;3.50;3.20;;;12.90;1.00;;;;;;5098248;27;20217;-52
2021/05/21 03:02:52;;;;;;;3.53;3.23;;;12.90;1.00;;;;;;5100296;28;20486;-59
2021/05/21 03:05:22;;;;;;;4.37;3.97;;;12.90;1.00;;;;;;5100218;28;20255;-53
2021/05/21 03:07:57;;;;;;;4.00;3.60;;;12.80;1.00;;;;;;5090613;28;20702;-53
2021/05/21 03:10:27;;;;;;;3.40;3.10;;;12.70;1.00;;;;;;5108805;28;20445;-55
2021/05/21 03:12:53;;;;;;;3.70;3.40;;;12.70;1.00;;;;;;5096185;28;20443;-54
2021/05/21 03:15:19;;;;;;;3.70;3.40;;;12.60;1.00;;;;;;5085224;28;20447;-55
2021/05/21 03:17:46;;;;;;;3.70;3.40;;;12.60;1.00;;;;;;5110130;28;20450;-51
2021/05/21 03:20:13;;;;;;;5.30;3.33;;;12.60;1.00;;;;;;5100332;28;20556;-52
2021/05/21 03:22:38;;;;;;;4.37;3.80;;;12.60;1.00;;;;;;5091749;28;20998;-57
2021/05/21 03:25:05;;;;;;;3.80;3.50;;;12.70;1.00;;;;;;5105935;28;20446;-55
2021/05/21 03:27:31;;;;;;;3.87;3.43;;;12.70;1.00;;;;;;5107724;28;20212;-53
2021/05/21 03:29:58;;;;;;;3.70;3.40;;;12.70;1.00;;;;;;5105133;28;20531;-54
2021/05/21 03:32:24;;;;;;;3.80;3.50;;;12.70;1.00;;;;;;5102638;28;20438;-54
2021/05/21 03:34:50;;;;;;;3.67;3.37;;;12.80;1.00;;;;;;5092564;28;20797;-51
2021/05/21 03:37:15;;;;;;;3.80;3.50;;;12.90;1.00;;;;;;5080880;28;20481;-54
2021/05/21 03:39:41;;;;;;;3.97;3.57;;;12.90;1.00;;;;;;5092716;28;20188;-55
2021/05/21 03:42:07;;;;;;;5.90;3.80;;;13.00;1.00;;;;;;5088408;28;20187;-54
2021/05/21 03:44:33;;;;;;;4.30;3.90;;;13.00;1.00;;;;;;5084563;28;20632;-55
2021/05/21 03:47:01;;;;;;;5.23;3.90;;;13.00;1.00;;;;;;5090710;28;20592;-52
2021/05/21 03:49:27;;;;;;;4.80;3.73;;;13.10;1.00;;;;;;5085617;28;20174;-52
2021/05/21 03:51:54;;;;;;;3.87;3.47;;;13.20;1.00;;;;;;5085407;28;20513;-53
2021/05/21 03:54:20;;;;;;;4.73;3.60;;;13.30;1.00;;;;;;5077412;28;20846;-55
2021/05/21 03:56:45;;;;;;;4.90;3.97;;;13.50;1.00;;;;;;5091947;28;20491;-53
2021/05/21 03:59:11;;;;;;;4.53;3.70;;;13.60;1.00;;;;;;5085445;28;20186;-53
2021/05/21 04:01:37;;;;;;;3.93;3.63;;;13.60;1.00;;;;;;5084576;28;20193;-54
2021/05/21 04:04:04;;;;;;;5.30;4.20;;;13.70;1.00;;;;;;5077238;28;20178;-53
2021/05/21 04:06:29;;;;;;;4.30;4.00;;;13.80;1.00;;;;;;5088872;28;20834;-54
2021/05/21 04:08:55;;;;;;;3.90;3.60;;;13.70;1.00;;;;;;5075654;28;21130;-52
2021/05/21 04:11:21;;;;;;;4.03;3.60;;;13.80;1.00;;;;;;5092909;28;20294;-55
2021/05/21 04:13:46;;;;;;;5.07;4.00;;;13.80;1.00;;;;;;5092708;28;20706;-55
2021/05/21 04:16:13;;;;;;;4.90;4.40;;;13.90;1.00;;;;;;5089198;28;20178;-54
2021/05/21 04:18:39;;;;;;;4.00;3.30;;;13.90;1.00;;;;;;5092982;28;20532;-53
2021/05/21 04:21:05;;;;;;;4.00;3.60;;;14.00;1.00;;;;;;5081298;28;20550;-51
2021/05/21 04:23:31;;;;;;;3.90;3.50;;;14.10;1.00;;;;;;5085327;28;20464;-56
2021/05/21 04:25:57;;;;;;;4.80;3.43;;;14.20;1.00;;;;;;5092699;28;20239;-53
2021/05/21 04:28:23;;;;;;;8.63;3.60;;;14.10;1.00;;;;;;5091809;28;21063;-53
2021/05/21 04:30:48;;;;;;;3.90;3.60;;;14.20;1.00;;;;;;5093135;28;20597;-53
2021/05/21 04:33:14;;;;;;;10.27;4.70;;;14.20;1.00;;;;;;5088559;28;20179;-54
2021/05/21 04:35:40;;;;;;;6.83;3.57;;;14.20;1.00;;;;;;5098074;28;20675;-54
2021/05/21 04:38:05;;;;;;;5.33;3.57;;;14.30;1.00;;;;;;5112236;28;20655;-55
2021/05/21 04:40:31;;;;;;;4.60;4.20;;;14.40;1.00;;;;;;5112424;28;20185;-56
2021/05/21 04:42:56;;;;;;;4.13;3.83;;;14.60;1.00;;;;;;5105908;28;20174;-52
2021/05/21 04:45:22;;;;;;;3.93;3.63;;;14.40;1.00;;;;;;5080582;28;20208;-54
2021/05/21 04:47:47;;;;;;;4.77;4.17;;;14.50;1.00;;;;;;5102182;28;20208;-54
2021/05/21 04:50:13;;;;;;;4.37;4.03;;;14.80;1.00;;;;;;5074386;28;20217;-54
2021/05/21 04:52:39;;;;;;;8.90;6.23;;;14.70;1.00;;;;;;5090789;28;20182;-57
2021/05/21 04:55:05;;;;;;;7.20;4.00;;;14.80;1.00;;;;;;5109032;28;20197;-54
2021/05/21 04:57:30;;;;;;;4.50;4.10;;;14.80;1.00;;;;;;5110249;28;20647;-52
2021/05/21 04:59:56;;;;;;;4.50;3.93;;;14.80;1.00;;;;;;5097934;28;20439;-52
2021/05/21 05:02:21;;;;;;;4.23;3.60;;;14.90;1.00;;;;;;5090197;27;20232;-53
2021/05/21 05:04:47;;;;;;;5.07;4.33;;;14.80;1.00;;;;;;5111369;28;20189;-57
2021/05/21 05:07:12;;;;;;;4.93;4.40;;;14.90;1.00;;;;;;5110819;28;20178;-55
2021/05/21 05:09:38;;;;;;;3.93;3.53;;;14.90;1.00;;;;;;5109199;28;20705;-54
2021/05/21 05:12:04;;;;;;;4.20;3.80;;;15.00;1.00;;;;;;5107283;28;20173;-53
2021/05/21 05:14:29;;;;;;;8.00;4.00;;;15.10;1.00;;;;;;5093132;28;20170;-54
2021/05/21 05:16:55;;;;;;;3.67;3.37;;;15.10;1.00;;;;;;5099258;28;20481;-54
2021/05/21 05:19:21;;;;;;;3.70;3.40;;;15.10;1.00;;;;;;5111115;28;20170;-54
2021/05/21 05:21:47;;;;;;;7.37;4.30;;;15.10;1.00;;;;;;5106601;28;20266;-52
2021/05/21 05:24:18;;;;;;;4.20;3.60;;;15.20;1.00;;;;;;5112193;28;20209;-54
2021/05/21 05:26:44;;;;;;;4.40;4.00;;;15.20;1.00;;;;;;5092134;28;20499;-54
2021/05/21 05:29:10;;;;;;;3.80;3.40;;;15.30;1.00;;;;;;5111392;28;20467;-57
2021/05/21 05:31:37;;;;;;;4.33;3.93;;;15.40;1.00;;;;;;5106303;28;20525;-56
2021/05/21 05:34:03;;;;;;;5.03;3.17;;;16.90;1.00;;;;;;5093591;28;20455;-52
2021/05/21 05:36:28;;;;;;;3.63;3.10;;;15.60;1.00;;;;;;5102481;28;20455;-55
2021/05/21 05:38:54;;;;;;;3.40;3.10;;;15.80;1.00;;;;;;5100652;28;20312;-55
2021/05/21 05:41:19;;;;;;;3.40;2.70;;;16.00;1.00;;;;;;5103030;28;20627;-52
2021/05/21 05:43:45;;;;;;;3.10;2.67;;;16.10;1.00;;;;;;5100948;28;20182;-54
2021/05/21 05:46:10;;;;;;;3.83;2.60;;;16.20;1.00;;;;;;5100152;28;20181;-52
2021/05/21 05:48:39;;;;;;;3.17;2.87;;;16.30;1.00;;;;;;5108920;28;20186;-55
2021/05/21 05:51:05;;;;;;;4.00;3.10;;;16.40;1.00;;;;;;5102166;28;20227;-53
2021/05/21 05:53:35;;;;;;;3.00;2.80;;;16.50;1.00;;;;;;5111915;28;21018;-55
2021/05/21 05:56:03;;;;;;;2.77;2.50;;;16.60;1.00;;;;;;5104906;28;20481;-53
2021/05/21 05:58:29;;;;;;;2.50;2.30;;;16.60;1.00;;;;;;5102118;28;20443;-52
2021/05/21 06:00:55;;;;;;;4.97;2.43;;;16.70;1.00;;;;;;5109731;28;20522;-55
2021/05/21 06:03:20;;;;;;;3.30;2.60;;;16.80;1.00;;;;;;5111094;28;20436;-52
2021/05/21 06:05:46;;;;;;;7.13;2.53;;;16.80;1.00;;;;;;5093399;28;20573;-57
2021/05/21 06:08:11;;;;;;;2.30;2.10;;;16.90;1.00;;;;;;5093560;28;20195;-53
2021/05/21 06:10:38;;;;;;;6.80;4.00;;;17.00;1.00;;;;;;5110689;28;20216;-56
2021/05/21 06:13:08;;;;;;;2.13;2.03;;;17.20;1.00;;;;;;5101393;28;20279;-53
2021/05/21 06:15:35;;;;;;;7.13;2.60;;;17.50;1.00;;;;;;5099687;28;20441;-54
2021/05/21 06:18:00;;;;;;;3.80;2.27;;;17.60;1.00;;;;;;5092914;28;20844;-52
2021/05/21 06:20:28;;;;;;;2.97;2.77;;;17.60;1.00;;;;;;5105039;28;20440;-54
2021/05/21 06:22:54;;;;;;;4.13;2.53;;;17.80;1.00;;;;;;5108897;28;20178;-53
2021/05/21 06:26:12;;;;;;;2.83;2.50;;;18.00;1.00;;;;;;5105942;28;20783;-53
2021/05/21 06:28:07;;;;;;;4.10;2.60;;;18.20;1.00;;;;;;5086718;28;20192;-53
2021/05/21 06:30:33;;;;;;;5.50;2.50;;;18.30;1.00;;;;;;5087817;28;20817;-54
2021/05/21 06:32:59;;;;;;;2.80;2.40;;;18.40;1.00;;;;;;5089269;28;20444;-54
2021/05/21 06:35:26;;;;;;;4.10;2.20;;;18.60;1.00;;;;;;5088432;28;20283;-54
2021/05/21 06:37:52;;;;;;;3.27;1.97;;;19.00;1.00;;;;;;5087272;28;21047;-51
2021/05/21 06:40:17;;;;;;;3.23;1.70;;;19.30;1.00;;;;;;5100177;28;20439;-53
2021/05/21 06:42:43;;;;;;;2.07;1.87;;;19.60;1.00;;;;;;5091341;28;20200;-56
2021/05/21 06:45:09;;;;;;;2.20;1.63;;;19.50;1.00;;;;;;5102909;28;20181;-52
2021/05/21 06:47:35;;;;;;;4.30;1.57;;;19.60;1.00;;;;;;5098333;28;20647;-54
2021/05/21 06:50:00;;;;;;;1.83;1.20;;;19.60;1.00;;;;;;5101800;28;20528;-53
2021/05/21 06:52:26;;;;;;;1.93;1.70;;;19.70;1.00;;;;;;5102512;28;20198;-53
2021/05/21 06:54:52;;;;;;;2.80;1.37;;;19.80;1.00;;;;;;5103962;28;20174;-53
2021/05/21 06:57:18;;;;;;;4.00;1.23;;;19.70;1.00;;;;;;5096341;28;20528;-53
2021/05/21 06:59:44;;;;;;;1.77;1.40;;;19.70;1.00;;;;;;5107597;28;20232;-52
2021/05/21 07:02:09;;;;;;;1.60;1.27;;;19.50;1.00;;;;;;5110497;28;21324;-56
2021/05/21 07:04:35;;;;;;;1.97;1.20;;;19.60;1.00;;;;;;5091293;28;20217;-56
2021/05/21 07:07:01;;;;;;;2.83;1.50;;;19.60;1.00;;;;;;5100092;28;20179;-55
2021/05/21 07:09:26;;;;;;;1.60;1.50;;;19.40;1.00;;;;;;5094518;28;20189;-55
2021/05/21 07:11:52;;;;;;;1.50;1.40;;;19.50;1.00;;;;;;5104111;28;20214;-54
2021/05/21 07:14:18;;;;;;;1.43;1.30;;;19.70;1.00;;;;;;5090254;28;20207;-53
2021/05/21 07:16:43;;;;;;;2.17;1.30;;;19.90;1.00;;;;;;5080044;28;20225;-51
2021/05/21 07:19:13;;;;;;;5.13;1.57;;;20.10;1.00;;;;;;5106059;28;20186;-53
2021/05/21 07:21:38;;;;;;;1.90;1.40;;;20.30;1.00;;;;;;5081438;28;20194;-54
2021/05/21 07:24:04;;;;;;;2.10;1.10;;;20.30;1.00;;;;;;5102609;28;20447;-55
2021/05/21 07:26:31;;;;;;;1.77;0.93;;;20.50;1.00;;;;;;5107991;28;20311;-53
2021/05/21 07:28:57;;;;;;;1.93;1.20;;;20.40;1.00;;;;;;5095495;28;20173;-54
2021/05/21 07:31:26;;;;;;;1.70;1.47;;;20.20;1.00;;;;;;5100955;28;20468;-54
2021/05/21 07:33:55;;;;;;;1.20;1.10;;;20.00;1.00;;;;;;5094286;28;20174;-53
2021/05/21 07:36:23;;;;;;;3.10;1.30;;;19.90;1.00;;;;;;5088086;28;20543;-52
2021/05/21 07:38:49;;;;;;;2.50;1.10;;;20.00;1.00;;;;;;5092248;28;20776;-55
2021/05/21 07:41:16;;;;;;;0.93;0.93;;;19.90;1.00;;;;;;5102553;28;20445;-51
2021/05/21 07:43:41;;;;;;;1.63;1.10;;;19.90;1.00;;;;;;5106185;28;20493;-52
2021/05/21 07:46:08;;;;;;;1.30;1.10;;;19.70;1.00;;;;;;5086075;28;20447;-55
2021/05/21 07:48:34;;;;;;;1.93;1.20;;;19.60;1.00;;;;;;5091252;28;20647;-53
2021/05/21 07:51:02;;;;;;;0.90;0.80;;;19.70;1.00;;;;;;5105316;28;20533;-53
2021/05/21 07:53:31;;;;;;;1.53;1.43;;;19.60;1.00;;;;;;5097711;28;20269;-54
2021/05/21 07:55:56;;;;;;;1.97;1.40;;;19.70;1.00;;;;;;5094538;28;20429;-51
2021/05/21 07:58:22;;;;;;;2.47;1.43;;;19.70;1.00;;;;;;5100186;28;20948;-54
2021/05/21 08:00:47;;;;;;;1.20;1.10;;;20.00;1.00;;;;;;5090998;28;20232;-55
2021/05/21 08:03:15;;;;;;;1.60;1.20;;;20.20;1.00;;;;;;5104432;28;20178;-52
2021/05/21 08:05:40;;;;;;;2.97;1.40;;;20.40;1.00;;;;;;5089279;28;20174;-52
2021/05/21 08:08:06;;;;;;;1.07;0.97;;;20.30;1.00;;;;;;5092291;28;20433;-53
2021/05/21 08:10:32;;;;;;;1.33;1.23;;;20.30;1.00;;;;;;5088730;28;20195;-53
2021/05/21 08:13:02;;;;;;;1.63;1.13;;;20.40;1.00;;;;;;5107049;28;20235;-58
2021/05/21 08:15:28;;;;;;;2.20;1.27;;;20.70;1.00;;;;;;5106462;28;20184;-53
2021/05/21 08:17:53;;;;;;;1.57;0.80;;;20.50;1.00;;;;;;5092577;28;20448;-51
2021/05/21 08:20:19;;;;;;;2.37;1.13;;;20.30;1.00;;;;;;5107836;28;20191;-54
2021/05/21 08:22:47;;;;;;;1.30;1.20;;;20.10;1.00;;;;;;5108682;28;20186;-52
2021/05/21 08:25:13;;;;;;;1.50;1.00;;;20.20;1.00;;;;;;5107606;28;20234;-54
2021/05/21 08:27:39;;;;;;;1.37;1.10;;;20.20;1.00;;;;;;5103158;28;20720;-52
2021/05/21 08:30:05;;;;;;;1.30;1.20;;;20.40;1.00;;;;;;5111196;28;20466;-56
2021/05/21 08:32:31;;;;;;;2.00;1.20;;;20.30;1.00;;;;;;5102235;28;20570;-51
2021/05/21 08:34:56;;;;;;;1.53;0.90;;;20.30;1.00;;;;;;5094472;28;20486;-54
2021/05/21 08:37:22;;;;;;;1.63;1.13;;;20.40;1.00;;;;;;5087003;28;20694;-53
2021/05/21 08:39:48;;;;;;;1.63;1.10;;;20.70;1.00;;;;;;5112394;28;20178;-54
2021/05/21 08:42:16;;;;;;;2.77;1.27;;;20.80;1.00;;;;;;5105981;28;20644;-54
2021/05/21 08:44:48;;;;;;;2.90;1.10;;;20.90;1.00;;;;;;5103932;28;20445;-57
2021/05/21 08:47:14;;;;;;;1.33;0.80;;;20.90;1.00;;;;;;5112385;28;20454;-54
2021/05/21 08:49:40;;;;;;;1.60;1.23;;;21.00;1.00;;;;;;5108264;28;20516;-53
2021/05/21 08:52:06;;;;;;;1.20;1.10;;;20.90;1.00;;;;;;5080713;28;20223;-54
2021/05/21 08:54:34;;;;;;;1.20;1.10;;;21.00;1.00;;;;;;5112751;28;20181;-55
2021/05/21 08:57:05;;;;;;;5.00;1.23;;;20.90;1.00;;;;;;5103470;28;20497;-55
2021/05/21 08:59:30;;;;;;;1.30;1.00;;;20.80;1.00;;;;;;5112060;28;20458;-55
2021/05/21 09:01:57;;;;;;;3.00;1.30;;;20.70;1.00;;;;;;5112295;28;20443;-55
2021/05/21 09:04:23;;;;;;;1.10;0.90;;;20.60;1.00;;;;;;5110749;28;20627;-52
2021/05/21 09:06:49;;;;;;;2.57;1.10;;;20.70;1.00;;;;;;5088462;28;20448;-55
2021/05/21 09:09:14;;;;;;;1.93;0.87;;;20.70;1.00;;;;;;5093607;28;20798;-54
2021/05/21 09:11:46;;;;;;;2.03;1.10;;;21.30;1.00;;;;;;5109875;28;20209;-59
2021/05/21 09:14:21;;;;;;;2.80;1.17;;;21.00;1.00;;;;;;5087521;28;20181;-54
2021/05/21 09:16:48;;;;;;;1.23;1.10;;;21.20;1.00;;;;;;5110893;28;20928;-52
2021/05/21 09:19:18;;;;;;;2.30;1.10;;;21.40;1.00;;;;;;5085177;28;20541;-55
2021/05/21 09:21:47;;;;;;;1.47;0.90;;;21.40;1.00;;;;;;5097867;28;20486;-53
2021/05/21 09:24:14;;;;;;;1.03;0.70;;;21.30;1.00;;;;;;5097950;28;20433;-55
2021/05/21 09:26:41;;;;;;;2.53;0.97;;;21.30;1.00;;;;;;5096195;28;20494;-54
2021/05/21 09:29:08;;;;;;;1.87;1.10;;;21.30;1.00;;;;;;5103396;28;20539;-54
2021/05/21 09:31:42;;;;;;;1.90;0.80;;;21.20;1.00;;;;;;5098748;28;20794;-51
2021/05/21 09:34:09;;;;;;;1.40;0.93;;;21.20;1.00;;;;;;5109648;28;20443;-55
2021/05/21 09:36:38;;;;;;;1.43;1.17;;;21.30;1.00;;;;;;5110185;28;20535;-56
2021/05/21 09:39:13;;;;;;;1.20;0.80;;;21.50;1.00;;;;;;5103022;28;20468;-51
2021/05/21 09:41:53;;;;;;;2.27;1.00;;;21.60;1.00;;;;;;5083873;28;20414;-54
2021/05/21 09:44:21;;;;;;;1.30;0.90;;;21.80;1.00;;;;;;5086502;28;20443;-53
2021/05/21 09:46:48;;;;;;;2.70;1.40;;;21.90;1.00;;;;;;5092464;28;20436;-56
2021/05/21 09:49:35;;;;;;;2.27;1.00;;;21.80;1.00;;;;;;5103050;28;20467;-54
2021/05/21 09:52:02;;;;;;;0.93;0.90;;;22.10;1.00;;;;;;5110798;28;20466;-55
2021/05/21 09:54:56;;;;;;;2.87;1.07;;;22.10;1.00;;;;;;5103126;28;20439;-55
2021/05/21 09:57:36;;;;;;;1.00;0.90;;;22.20;1.00;;;;;;5111388;28;20427;-55
2021/05/21 10:00:04;;;;;;;2.53;1.97;;;22.30;1.00;;;;;;5100323;28;20463;-58
2021/05/21 10:02:32;;;;;;;1.77;1.40;;;22.50;1.00;;;;;;5101206;28;20888;-53
2021/05/21 10:05:00;;;;;;;1.70;1.20;;;22.60;1.00;;;;;;5110150;28;20530;-56
2021/05/21 10:07:26;;;;;;;1.80;1.30;;;22.90;1.00;;;;;;5107514;28;20443;-57
2021/05/21 10:09:51;;;;;;;4.03;1.30;;;22.70;1.00;;;;;;5098092;28;20658;-52
2021/05/21 10:12:17;;;;;;;1.87;1.30;;;22.80;1.00;;;;;;5109288;28;20936;-52
2021/05/21 10:14:50;;;;;;;3.93;1.30;;;22.80;1.00;;;;;;5110697;28;20180;-56
2021/05/21 10:17:25;;;;;;;3.23;1.57;;;22.70;1.00;;;;;;5107117;28;20495;-55
2021/05/21 10:19:54;;;;;;;1.23;1.13;;;22.60;1.00;;;;;;5100105;28;20434;-54
2021/05/21 10:22:29;;;;;;;1.63;1.00;;;22.60;1.00;;;;;;5076934;28;20928;-53
2021/05/21 10:25:01;;;;;;;2.30;1.37;;;22.70;1.00;;;;;;5098312;28;20912;-55
2021/05/21 10:27:30;;;;;;;2.27;1.50;;;22.90;1.00;;;;;;5109905;28;20430;-55
2021/05/21 10:29:59;;;;;;;2.43;1.30;;;22.90;1.00;;;;;;5093173;28;20500;-56
2021/05/21 10:32:30;;;;;;;2.70;1.50;;;22.70;1.00;;;;;;5105578;28;20503;-54
2021/05/21 10:34:56;;;;;;;1.73;1.43;;;22.50;1.00;;;;;;5100868;28;20951;-54
2021/05/21 10:37:23;;;;;;;4.03;1.60;;;22.40;1.00;;;;;;5094330;28;20453;-57
2021/05/21 10:40:07;;;;;;;1.53;1.30;;;22.40;1.00;;;;;;5107918;28;20447;-53
2021/05/21 10:42:43;;;;;;;2.40;1.33;;;22.70;1.00;;;;;;5084342;28;21003;-54
2021/05/21 10:45:21;;;;;;;1.63;1.07;;;22.90;1.00;;;;;;5102119;28;20526;-54
2021/05/21 10:47:56;;;;;;;1.40;1.20;;;23.20;1.00;;;;;;5100945;28;20492;-56
2021/05/21 10:50:22;;;;;;;3.00;1.30;;;23.60;1.00;;;;;;5099979;28;20512;-54
2021/05/21 10:53:20;;;;;;;2.90;1.37;;;23.40;1.00;;;;;;5107942;28;21008;-54
2021/05/21 10:55:55;;;;;;;1.63;1.20;;;23.30;1.00;;;;;;5048162;28;20201;-52
2021/05/21 10:58:30;;;;;;;1.53;1.20;;;23.20;1.00;;;;;;5098887;28;20523;-51
2021/05/21 11:01:09;;;;;;;1.10;1.00;;;23.30;1.00;;;;;;5093232;28;20453;-55
2021/05/21 11:04:03;;;;;;;2.70;1.23;;;23.20;1.00;;;;;;5110239;28;20892;-56
2021/05/21 11:06:41;;;;;;;3.20;1.23;;;23.10;1.00;;;;;;5107408;28;20431;-53
2021/05/21 11:09:21;;;;;;;1.80;1.13;;;23.20;1.00;;;;;;5110277;28;20409;-53
2021/05/21 11:11:51;;;;;;;2.30;0.90;;;23.50;1.00;;;;;;5101690;28;20939;-54
2021/05/21 11:14:36;;;;;;;1.57;0.90;;;23.00;1.00;;;;;;5098610;28;21155;-52
2021/05/21 11:17:26;;;;;;;2.50;1.00;;;22.40;1.00;;;;;;5093461;28;20522;-55
2021/05/21 11:19:57;;;;;;;1.70;1.00;;;22.10;1.00;;;;;;5104004;28;20440;-54
2021/05/21 11:22:25;;;;;;;1.23;0.87;;;22.00;1.00;;;;;;5101677;28;20809;-52
2021/05/21 11:25:28;;;;;;;2.20;1.00;;;21.90;1.00;;;;;;5110639;28;20454;-55
2021/05/21 11:27:54;;;;;;;1.57;0.90;;;21.80;1.00;;;;;;5046120;28;21017;-52
2021/05/21 11:30:21;;;;;;;4.10;2.00;;;22.10;1.00;;;;;;5105822;28;20467;-53
2021/05/21 11:32:47;;;;;;;1.63;0.90;;;22.50;1.00;;;;;;5091537;28;20443;-54
2021/05/21 11:35:13;;;;;;;2.70;1.00;;;22.70;1.00;;;;;;5098069;28;20435;-53
2021/05/21 11:37:40;;;;;;;1.33;0.80;;;22.70;1.00;;;;;;5085257;28;20439;-55
2021/05/21 11:40:08;;;;;;;1.73;1.10;;;22.60;1.00;;;;;;5076466;28;20451;-55
2021/05/21 11:42:37;;;;;;;1.80;0.80;;;22.60;1.00;;;;;;5106402;28;20761;-52
2021/05/21 11:45:05;;;;;;;2.03;1.00;;;22.50;1.00;;;;;;5089584;28;20944;-52
2021/05/21 11:47:36;;;;;;;1.40;0.87;;;22.20;1.00;;;;;;5096146;28;20439;-54
2021/05/21 11:50:05;;;;;;;2.03;1.23;;;22.20;1.00;;;;;;5091190;28;20440;-53
2021/05/21 11:52:31;;;;;;;1.10;0.87;;;22.40;1.00;;;;;;5102296;28;20444;-52
2021/05/21 11:54:57;;;;;;;1.10;0.90;;;22.50;1.00;;;;;;5081571;28;20437;-55
2021/05/21 11:57:24;;;;;;;1.70;1.10;;;22.70;1.00;;;;;;5089929;28;20197;-52
2021/05/21 11:59:53;;;;;;;2.83;0.90;;;22.80;1.00;;;;;;5100038;28;20432;-55
2021/05/21 12:02:19;;;;;;;0.73;0.70;;;22.90;1.00;;;;;;5104681;28;20488;-54
2021/05/21 12:04:46;;;;;;;1.50;1.00;;;22.70;1.00;;;;;;5107022;28;20446;-54
2021/05/21 12:07:23;;;;;;;2.17;1.20;;;22.50;1.00;;;;;;5106771;28;20493;-52
2021/05/21 12:09:54;;;;;;;1.60;1.30;;;22.40;1.00;;;;;;5107231;28;20533;-51
2021/05/21 12:12:25;;;;;;;0.90;0.70;;;22.40;1.00;;;;;;5114484;28;20819;-53
2021/05/21 12:14:51;;;;;;;1.70;0.97;;;22.70;1.00;;;;;;5102656;28;20766;-53
2021/05/21 12:17:16;;;;;;;7.33;1.37;;;22.90;1.00;;;;;;5114181;28;20503;-52
2021/05/21 12:19:43;;;;;;;3.40;1.80;;;23.60;1.00;;;;;;5104619;28;20619;-54
2021/05/21 12:22:08;;;;;;;4.90;1.27;;;23.30;1.00;;;;;;5097438;28;20242;-54
2021/05/21 12:24:39;;;;;;;1.90;0.97;;;23.40;1.00;;;;;;5108599;28;20435;-57
2021/05/21 12:27:05;;;;;;;1.20;0.90;;;23.50;1.00;;;;;;5105210;28;20178;-55
2021/05/21 12:29:31;;;;;;;2.87;0.87;;;23.40;1.00;;;;;;5108395;28;20440;-56
2021/05/21 12:31:58;;;;;;;3.93;0.90;;;23.40;1.00;;;;;;5091674;28;20266;-54
2021/05/21 12:34:26;;;;;;;1.20;0.80;;;23.40;1.00;;;;;;5101014;28;20532;-54
2021/05/21 12:37:08;;;;;;;1.40;1.00;;;23.40;1.00;;;;;;5096991;28;20992;-51
2021/05/21 12:39:38;;;;;;;4.13;1.00;;;23.10;1.00;;;;;;5102312;28;20467;-51
2021/05/21 12:42:04;;;;;;;3.50;0.90;;;23.10;1.00;;;;;;5097328;28;20794;-53
2021/05/21 12:44:30;;;;;;;2.70;0.90;;;23.10;1.00;;;;;;5103856;28;20434;-53
2021/05/21 12:47:00;;;;;;;1.30;1.20;;;23.20;1.00;;;;;;5078106;28;20475;-52
2021/05/21 12:49:31;;;;;;;2.40;0.90;;;23.20;1.00;;;;;;5105957;28;20975;-53
2021/05/21 12:52:02;;;;;;;1.17;0.90;;;23.50;1.00;;;;;;5102748;28;20855;-54
2021/05/21 12:54:31;;;;;;;1.30;1.07;;;23.60;1.00;;;;;;5074381;28;20448;-53
2021/05/21 12:57:02;;;;;;;2.13;1.30;;;23.60;1.00;;;;;;5094151;28;20439;-53
2021/05/21 12:59:46;;;;;;;4.53;1.20;;;23.50;1.00;;;;;;5111950;28;20863;-55
2021/05/21 13:02:23;;;;;;;2.33;1.20;;;23.30;1.00;;;;;;5099797;28;20430;-52